PWSweather.com
Personal Weather Stations
Station Observations
IMAZOWIE6
WarszawaPL

WarszawaPL

Lat: 52.27957, Lon: 21.05489

Elevation: 100

Station Type: WS1080

http://stacjapogody.waw.pl/

High Low Average
Temperature 84.9°F29.4°C 61.0°F16.1°C 71.8°F22.1°C
Dew Point -164.3°F-109.1°C -166.7°F-110.4°C -165.6°F-109.8°C
Winds 4.8 mph 7.7 kmh Calm Calm 1.0 mph N1.6 kmh N
Wind Gusts 8.8 mph14.2 kmh -- 3.0 mph4.8 kmh
Humidity - - -
Pressure 29.49 in998.6 mb 29.37 in994.6 mb -
Precipitation 0.00 in0.0 mm - -
Hour Temp Dew Point Humidity Winds Wind Gusts Pressure Precip Precip Rate Daily Precip Total
12:06 AM 69.3°F20.7°C -165.9°F-109.9°C - Calm Calm 1.4 mph2.3 kmh 29.38 in994.9 mb 0.00 in0.0 mm 0.00 in0.0 mm 0.00 in0.0 mm
12:21 AM 69.1°F20.6°C -165.9°F-109.9°C - Calm Calm -- 29.39 in995.3 mb 0.00 in0.0 mm 0.00 in0.0 mm 0.00 in0.0 mm
12:36 AM 68.9°F20.5°C -165.9°F-109.9°C - 0.6 mph N1.0 kmh N 3.4 mph5.5 kmh 29.39 in995.3 mb 0.00 in0.0 mm 0.00 in0.0 mm 0.00 in0.0 mm
12:51 AM 68.5°F20.3°C -165.9°F-109.9°C - 1.4 mph N2.3 kmh N 3.4 mph5.5 kmh 29.39 in995.3 mb 0.00 in0.0 mm 0.00 in0.0 mm 0.00 in0.0 mm
01:06 AM 68.0°F20.0°C -166.0°F-110.0°C - Calm Calm 0.6 mph1.0 kmh 29.39 in995.3 mb 0.00 in0.0 mm 0.00 in0.0 mm 0.00 in0.0 mm
01:21 AM 67.3°F19.6°C -166.1°F-110.1°C - 0.6 mph N1.0 kmh N 2.8 mph4.5 kmh 29.39 in995.3 mb 0.00 in0.0 mm 0.00 in0.0 mm 0.00 in0.0 mm
01:36 AM 67.1°F19.5°C -166.1°F-110.1°C - Calm Calm 1.4 mph2.3 kmh 29.39 in995.3 mb 0.00 in0.0 mm 0.00 in0.0 mm 0.00 in0.0 mm
01:51 AM 67.1°F19.5°C -166.1°F-110.1°C - Calm Calm 0.6 mph1.0 kmh 29.39 in995.3 mb 0.00 in0.0 mm 0.00 in0.0 mm 0.00 in0.0 mm
02:06 AM 66.9°F19.4°C -166.1°F-110.1°C - 0.6 mph N1.0 kmh N 3.4 mph5.5 kmh 29.39 in995.3 mb 0.00 in0.0 mm 0.00 in0.0 mm 0.00 in0.0 mm
02:22 AM 66.9°F19.4°C -166.1°F-110.1°C - Calm Calm 1.4 mph2.3 kmh 29.39 in995.3 mb 0.00 in0.0 mm 0.00 in0.0 mm 0.00 in0.0 mm
02:36 AM 66.9°F19.4°C -166.1°F-110.1°C - 0.6 mph N1.0 kmh N 2.0 mph3.2 kmh 29.39 in995.3 mb 0.00 in0.0 mm 0.00 in0.0 mm 0.00 in0.0 mm
02:52 AM 66.7°F19.3°C -166.1°F-110.1°C - Calm Calm 2.0 mph3.2 kmh 29.39 in995.3 mb 0.00 in0.0 mm 0.00 in0.0 mm 0.00 in0.0 mm
03:06 AM 66.7°F19.3°C -166.1°F-110.1°C - 0.6 mph N1.0 kmh N 1.4 mph2.3 kmh 29.39 in995.3 mb 0.00 in0.0 mm 0.00 in0.0 mm 0.00 in0.0 mm
03:21 AM 66.7°F19.3°C -166.1°F-110.1°C - Calm Calm 1.4 mph2.3 kmh 29.39 in995.3 mb 0.00 in0.0 mm 0.00 in0.0 mm 0.00 in0.0 mm
03:36 AM 66.9°F19.4°C -166.1°F-110.1°C - 0.6 mph N1.0 kmh N 2.0 mph3.2 kmh 29.39 in995.3 mb 0.00 in0.0 mm 0.00 in0.0 mm 0.00 in0.0 mm
03:51 AM 66.6°F19.2°C -166.1°F-110.1°C - 1.4 mph N2.3 kmh N 3.4 mph5.5 kmh 29.39 in995.3 mb 0.00 in0.0 mm 0.00 in0.0 mm 0.00 in0.0 mm
04:06 AM 66.9°F19.4°C -166.1°F-110.1°C - 0.6 mph N1.0 kmh N 2.0 mph3.2 kmh 29.39 in995.3 mb 0.00 in0.0 mm 0.00 in0.0 mm 0.00 in0.0 mm
04:21 AM 66.9°F19.4°C -166.1°F-110.1°C - 1.4 mph N2.3 kmh N 2.8 mph4.5 kmh 29.39 in995.3 mb 0.00 in0.0 mm 0.00 in0.0 mm 0.00 in0.0 mm
04:36 AM 67.5°F19.7°C -166.1°F-110.1°C - 0.6 mph N1.0 kmh N 2.8 mph4.5 kmh 29.39 in995.3 mb 0.00 in0.0 mm 0.00 in0.0 mm 0.00 in0.0 mm
04:51 AM 69.6°F20.9°C -165.8°F-109.9°C - 0.6 mph N1.0 kmh N 2.8 mph4.5 kmh 29.40 in995.6 mb 0.00 in0.0 mm 0.00 in0.0 mm 0.00 in0.0 mm
05:06 AM 72.7°F22.6°C -165.5°F-109.7°C - 1.4 mph N2.3 kmh N 3.4 mph5.5 kmh 29.40 in995.6 mb 0.00 in0.0 mm 0.00 in0.0 mm 0.00 in0.0 mm
05:21 AM 77.2°F25.1°C -165.1°F-109.5°C - 1.4 mph N2.3 kmh N 3.4 mph5.5 kmh 29.40 in995.6 mb 0.00 in0.0 mm 0.00 in0.0 mm 0.00 in0.0 mm
05:36 AM 79.3°F26.3°C -164.9°F-109.4°C - 0.6 mph N1.0 kmh N 2.8 mph4.5 kmh 29.39 in995.3 mb 0.00 in0.0 mm 0.00 in0.0 mm 0.00 in0.0 mm
05:51 AM 81.5°F27.5°C -164.7°F-109.3°C - 0.6 mph N1.0 kmh N 3.4 mph5.5 kmh 29.39 in995.3 mb 0.00 in0.0 mm 0.00 in0.0 mm 0.00 in0.0 mm
06:06 AM 83.3°F28.5°C -164.5°F-109.2°C - 1.4 mph N2.3 kmh N 3.4 mph5.5 kmh 29.39 in995.3 mb 0.00 in0.0 mm 0.00 in0.0 mm 0.00 in0.0 mm
06:21 AM 84.4°F29.1°C -164.4°F-109.1°C - 0.6 mph N1.0 kmh N 2.8 mph4.5 kmh 29.39 in995.3 mb 0.00 in0.0 mm 0.00 in0.0 mm 0.00 in0.0 mm
06:36 AM 84.7°F29.3°C -164.3°F-109.1°C - 0.6 mph N1.0 kmh N 2.8 mph4.5 kmh 29.39 in995.3 mb 0.00 in0.0 mm 0.00 in0.0 mm 0.00 in0.0 mm
06:51 AM 80.1°F26.7°C -164.8°F-109.3°C - 1.4 mph N2.3 kmh N 2.8 mph4.5 kmh 29.39 in995.3 mb 0.00 in0.0 mm 0.00 in0.0 mm 0.00 in0.0 mm
07:06 AM 81.1°F27.3°C -164.7°F-109.3°C - 0.6 mph N1.0 kmh N 2.8 mph4.5 kmh 29.39 in995.3 mb 0.00 in0.0 mm 0.00 in0.0 mm 0.00 in0.0 mm
07:21 AM 79.2°F26.2°C -164.9°F-109.4°C - 1.4 mph N2.3 kmh N 4.0 mph6.4 kmh 29.39 in995.3 mb 0.00 in0.0 mm 0.00 in0.0 mm 0.00 in0.0 mm
07:36 AM 81.3°F27.4°C -164.7°F-109.3°C - 2.8 mph N4.5 kmh N 6.2 mph10.0 kmh 29.38 in994.9 mb 0.00 in0.0 mm 0.00 in0.0 mm 0.00 in0.0 mm
07:51 AM 79.0°F26.1°C -164.9°F-109.4°C - 2.0 mph N3.2 kmh N 5.4 mph8.7 kmh 29.38 in994.9 mb 0.00 in0.0 mm 0.00 in0.0 mm 0.00 in0.0 mm
08:06 AM 79.3°F26.3°C -164.9°F-109.4°C - 2.0 mph N3.2 kmh N 4.8 mph7.7 kmh 29.39 in995.3 mb 0.00 in0.0 mm 0.00 in0.0 mm 0.00 in0.0 mm
08:21 AM 78.4°F25.8°C -165.0°F-109.4°C - 1.4 mph N2.3 kmh N 2.0 mph3.2 kmh 29.39 in995.3 mb 0.00 in0.0 mm 0.00 in0.0 mm 0.00 in0.0 mm
08:36 AM 78.6°F25.9°C -164.9°F-109.4°C - 2.8 mph N4.5 kmh N 5.4 mph8.7 kmh 29.39 in995.3 mb 0.00 in0.0 mm 0.00 in0.0 mm 0.00 in0.0 mm
08:51 AM 80.4°F26.9°C -164.8°F-109.3°C - 4.8 mph N7.7 kmh N 7.4 mph11.9 kmh 29.38 in994.9 mb 0.00 in0.0 mm 0.00 in0.0 mm 0.00 in0.0 mm
09:06 AM 84.9°F29.4°C -164.3°F-109.1°C - 2.0 mph N3.2 kmh N 6.8 mph10.9 kmh 29.38 in994.9 mb 0.00 in0.0 mm 0.00 in0.0 mm 0.00 in0.0 mm
09:21 AM 83.8°F28.8°C -164.4°F-109.1°C - 2.8 mph N4.5 kmh N 5.4 mph8.7 kmh 29.38 in994.9 mb 0.00 in0.0 mm 0.00 in0.0 mm 0.00 in0.0 mm
09:36 AM 82.0°F27.8°C -164.6°F-109.2°C - 1.4 mph N2.3 kmh N 2.8 mph4.5 kmh 29.38 in994.9 mb 0.00 in0.0 mm 0.00 in0.0 mm 0.00 in0.0 mm
09:51 AM 80.6°F27.0°C -164.7°F-109.3°C - 4.8 mph N7.7 kmh N 8.8 mph14.2 kmh 29.38 in994.9 mb 0.00 in0.0 mm 0.00 in0.0 mm 0.00 in0.0 mm
10:06 AM 82.8°F28.2°C -164.5°F-109.2°C - 3.4 mph N5.5 kmh N 6.2 mph10.0 kmh 29.38 in994.9 mb 0.00 in0.0 mm 0.00 in0.0 mm 0.00 in0.0 mm
10:21 AM 79.5°F26.4°C -164.8°F-109.3°C - 0.6 mph N1.0 kmh N 2.8 mph4.5 kmh 29.38 in994.9 mb 0.00 in0.0 mm 0.00 in0.0 mm 0.00 in0.0 mm
10:36 AM 80.1°F26.7°C -164.8°F-109.3°C - 3.4 mph N5.5 kmh N 6.2 mph10.0 kmh 29.38 in994.9 mb 0.00 in0.0 mm 0.00 in0.0 mm 0.00 in0.0 mm
10:51 AM 78.6°F25.9°C -164.9°F-109.4°C - 4.0 mph N6.4 kmh N 8.2 mph13.2 kmh 29.38 in994.9 mb 0.00 in0.0 mm 0.00 in0.0 mm 0.00 in0.0 mm
11:06 AM 78.4°F25.8°C -165.0°F-109.4°C - 2.8 mph N4.5 kmh N 6.8 mph10.9 kmh 29.38 in994.9 mb 0.00 in0.0 mm 0.00 in0.0 mm 0.00 in0.0 mm
11:21 AM 78.3°F25.7°C -165.0°F-109.4°C - 1.4 mph N2.3 kmh N 5.4 mph8.7 kmh 29.38 in994.9 mb 0.00 in0.0 mm 0.00 in0.0 mm 0.00 in0.0 mm
11:36 AM 77.0°F25.0°C -165.1°F-109.5°C - 3.4 mph N5.5 kmh N 8.2 mph13.2 kmh 29.38 in994.9 mb 0.00 in0.0 mm 0.00 in0.0 mm 0.00 in0.0 mm
11:51 AM 76.6°F24.8°C -165.1°F-109.5°C - 2.8 mph N4.5 kmh N 5.4 mph8.7 kmh 29.38 in994.9 mb 0.00 in0.0 mm 0.00 in0.0 mm 0.00 in0.0 mm
12:06 PM 77.5°F25.3°C -165.0°F-109.4°C - 1.4 mph N2.3 kmh N 3.4 mph5.5 kmh 29.38 in994.9 mb 0.00 in0.0 mm 0.00 in0.0 mm 0.00 in0.0 mm
12:21 PM 79.0°F26.1°C -164.9°F-109.4°C - 3.4 mph N5.5 kmh N 6.2 mph10.0 kmh 29.38 in994.9 mb 0.00 in0.0 mm 0.00 in0.0 mm 0.00 in0.0 mm
12:36 PM 79.2°F26.2°C -164.9°F-109.4°C - 2.0 mph N3.2 kmh N 4.0 mph6.4 kmh 29.38 in994.9 mb 0.00 in0.0 mm 0.00 in0.0 mm 0.00 in0.0 mm
12:51 PM 78.6°F25.9°C -164.9°F-109.4°C - 2.8 mph N4.5 kmh N 4.8 mph7.7 kmh 29.37 in994.6 mb 0.00 in0.0 mm 0.00 in0.0 mm 0.00 in0.0 mm
01:06 PM 77.4°F25.2°C -165.1°F-109.5°C - 2.0 mph N3.2 kmh N 5.4 mph8.7 kmh 29.39 in995.3 mb 0.00 in0.0 mm 0.00 in0.0 mm 0.00 in0.0 mm
01:21 PM 71.1°F21.7°C -165.7°F-109.8°C - Calm Calm 0.6 mph1.0 kmh 29.39 in995.3 mb 0.02 in0.5 mm 0.10 in2.5 mm 0.02 in0.5 mm
01:36 PM 72.0°F22.2°C -165.6°F-109.8°C - 0.6 mph N1.0 kmh N 4.0 mph6.4 kmh 29.39 in995.3 mb 0.02 in0.5 mm 0.00 in0.0 mm 0.02 in0.5 mm
01:51 PM 73.8°F23.2°C -165.4°F-109.7°C - Calm Calm 2.8 mph4.5 kmh 29.38 in994.9 mb 0.02 in0.5 mm 0.00 in0.0 mm 0.02 in0.5 mm
02:06 PM 74.3°F23.5°C -165.4°F-109.7°C - 1.4 mph N2.3 kmh N 3.4 mph5.5 kmh 29.38 in994.9 mb 0.02 in0.5 mm 0.00 in0.0 mm 0.02 in0.5 mm
02:21 PM 75.9°F24.4°C -165.2°F-109.6°C - 2.8 mph N4.5 kmh N 6.2 mph10.0 kmh 29.38 in994.9 mb 0.00 in0.0 mm 0.00 in0.0 mm 0.02 in0.5 mm
02:36 PM 76.5°F24.7°C -165.2°F-109.6°C - 0.6 mph N1.0 kmh N 3.4 mph5.5 kmh 29.38 in994.9 mb 0.00 in0.0 mm 0.00 in0.0 mm 0.02 in0.5 mm
02:51 PM 76.8°F24.9°C -165.1°F-109.5°C - 1.4 mph N2.3 kmh N 4.0 mph6.4 kmh 29.37 in994.6 mb 0.00 in0.0 mm 0.00 in0.0 mm 0.02 in0.5 mm
03:06 PM 76.8°F24.9°C -165.1°F-109.5°C - 1.4 mph N2.3 kmh N 4.0 mph6.4 kmh 29.37 in994.6 mb 0.00 in0.0 mm 0.00 in0.0 mm 0.02 in0.5 mm
03:21 PM 75.2°F24.0°C -165.3°F-109.6°C - 2.0 mph N3.2 kmh N 4.0 mph6.4 kmh 29.37 in994.6 mb 0.00 in0.0 mm 0.00 in0.0 mm 0.02 in0.5 mm
03:36 PM 74.3°F23.5°C -165.4°F-109.7°C - 1.4 mph N2.3 kmh N 2.8 mph4.5 kmh 29.37 in994.6 mb 0.00 in0.0 mm 0.00 in0.0 mm 0.02 in0.5 mm
03:51 PM 73.4°F23.0°C -165.5°F-109.7°C - 2.0 mph N3.2 kmh N 4.0 mph6.4 kmh 29.37 in994.6 mb 0.01 in0.3 mm 0.05 in1.3 mm 0.04 in1.0 mm
04:06 PM 72.5°F22.5°C -165.6°F-109.8°C - 4.0 mph N6.4 kmh N 6.8 mph10.9 kmh 29.38 in994.9 mb 0.01 in0.3 mm 0.00 in0.0 mm 0.04 in1.0 mm
04:21 PM 70.3°F21.3°C -165.8°F-109.9°C - 2.0 mph N3.2 kmh N 4.8 mph7.7 kmh 29.37 in994.6 mb 0.00 in0.0 mm 0.00 in0.0 mm 0.04 in1.0 mm
04:36 PM 70.3°F21.3°C -165.8°F-109.9°C - 0.6 mph N1.0 kmh N 2.0 mph3.2 kmh 29.37 in994.6 mb 0.00 in0.0 mm 0.00 in0.0 mm 0.04 in1.0 mm
04:51 PM 70.7°F21.5°C -165.7°F-109.8°C - 1.4 mph N2.3 kmh N 3.4 mph5.5 kmh 29.38 in994.9 mb 0.00 in0.0 mm 0.00 in0.0 mm 0.04 in1.0 mm
05:06 PM 71.1°F21.7°C -165.7°F-109.8°C - 1.4 mph N2.3 kmh N 2.8 mph4.5 kmh 29.38 in994.9 mb 0.00 in0.0 mm 0.00 in0.0 mm 0.04 in1.0 mm
05:21 PM 70.7°F21.5°C -165.7°F-109.8°C - 1.4 mph N2.3 kmh N 3.4 mph5.5 kmh 29.39 in995.3 mb 0.00 in0.0 mm 0.00 in0.0 mm 0.04 in1.0 mm
05:36 PM 69.4°F20.8°C -165.9°F-109.9°C - 1.4 mph N2.3 kmh N 3.4 mph5.5 kmh 29.39 in995.3 mb 0.01 in0.3 mm 0.05 in1.3 mm 0.05 in1.3 mm
05:51 PM 67.5°F19.7°C -166.1°F-110.1°C - Calm Calm 1.4 mph2.3 kmh 29.40 in995.6 mb 0.01 in0.3 mm 0.00 in0.0 mm 0.05 in1.3 mm
06:06 PM 67.6°F19.8°C -166.0°F-110.0°C - Calm Calm 0.6 mph1.0 kmh 29.41 in995.9 mb 0.01 in0.3 mm 0.00 in0.0 mm 0.05 in1.3 mm
06:21 PM 67.3°F19.6°C -166.1°F-110.1°C - Calm Calm -- 29.41 in995.9 mb 0.00 in0.0 mm 0.00 in0.0 mm 0.05 in1.3 mm
06:36 PM 66.6°F19.2°C -166.1°F-110.1°C - Calm Calm 2.0 mph3.2 kmh 29.42 in996.3 mb 0.00 in0.0 mm 0.00 in0.0 mm 0.05 in1.3 mm
06:51 PM 65.7°F18.7°C -166.2°F-110.1°C - Calm Calm -- 29.42 in996.3 mb 0.00 in0.0 mm 0.00 in0.0 mm 0.05 in1.3 mm
07:06 PM 65.5°F18.6°C -166.3°F-110.2°C - Calm Calm 0.6 mph1.0 kmh 29.43 in996.6 mb 0.00 in0.0 mm 0.00 in0.0 mm 0.05 in1.3 mm
07:21 PM 65.5°F18.6°C -166.3°F-110.2°C - Calm Calm 1.4 mph2.3 kmh 29.43 in996.6 mb 0.00 in0.0 mm 0.00 in0.0 mm 0.05 in1.3 mm
07:36 PM 65.3°F18.5°C -166.3°F-110.2°C - 0.6 mph N1.0 kmh N 2.0 mph3.2 kmh 29.43 in996.6 mb 0.00 in0.0 mm 0.00 in0.0 mm 0.05 in1.3 mm
07:51 PM 64.4°F18.0°C -166.4°F-110.2°C - Calm Calm -- 29.43 in996.6 mb 0.00 in0.0 mm 0.00 in0.0 mm 0.05 in1.3 mm
08:06 PM 64.2°F17.9°C -166.4°F-110.2°C - Calm Calm 0.6 mph1.0 kmh 29.44 in997.0 mb 0.00 in0.0 mm 0.00 in0.0 mm 0.05 in1.3 mm
08:21 PM 63.5°F17.5°C -166.5°F-110.3°C - Calm Calm 0.6 mph1.0 kmh 29.44 in997.0 mb 0.00 in0.0 mm 0.00 in0.0 mm 0.05 in1.3 mm
08:36 PM 63.5°F17.5°C -166.5°F-110.3°C - Calm Calm 1.4 mph2.3 kmh 29.45 in997.3 mb 0.00 in0.0 mm 0.00 in0.0 mm 0.05 in1.3 mm
08:51 PM 63.0°F17.2°C -166.5°F-110.3°C - Calm Calm 0.6 mph1.0 kmh 29.45 in997.3 mb 0.00 in0.0 mm 0.00 in0.0 mm 0.05 in1.3 mm
09:06 PM 62.8°F17.1°C -166.5°F-110.3°C - Calm Calm 0.6 mph1.0 kmh 29.45 in997.3 mb 0.00 in0.0 mm 0.00 in0.0 mm 0.05 in1.3 mm
09:21 PM 63.1°F17.3°C -166.5°F-110.3°C - Calm Calm 0.6 mph1.0 kmh 29.45 in997.3 mb 0.00 in0.0 mm 0.00 in0.0 mm 0.05 in1.3 mm
09:36 PM 63.0°F17.2°C -166.5°F-110.3°C - Calm Calm 2.0 mph3.2 kmh 29.46 in997.6 mb 0.00 in0.0 mm 0.00 in0.0 mm 0.05 in1.3 mm
09:51 PM 62.8°F17.1°C -166.5°F-110.3°C - Calm Calm 0.6 mph1.0 kmh 29.46 in997.6 mb 0.00 in0.0 mm 0.00 in0.0 mm 0.05 in1.3 mm
10:06 PM 62.8°F17.1°C -166.5°F-110.3°C - Calm Calm 1.4 mph2.3 kmh 29.46 in997.6 mb 0.00 in0.0 mm 0.00 in0.0 mm 0.05 in1.3 mm
10:21 PM 62.4°F16.9°C -166.6°F-110.3°C - 0.6 mph N1.0 kmh N 2.0 mph3.2 kmh 29.47 in998.0 mb 0.00 in0.0 mm 0.00 in0.0 mm 0.05 in1.3 mm
10:36 PM 62.2°F16.8°C -166.6°F-110.3°C - 0.6 mph N1.0 kmh N 2.0 mph3.2 kmh 29.47 in998.0 mb 0.00 in0.0 mm 0.00 in0.0 mm 0.05 in1.3 mm
10:51 PM 61.9°F16.6°C -166.6°F-110.3°C - 0.6 mph N1.0 kmh N 1.4 mph2.3 kmh 29.47 in998.0 mb 0.00 in0.0 mm 0.00 in0.0 mm 0.05 in1.3 mm
11:06 PM 61.7°F16.5°C -166.6°F-110.3°C - 0.6 mph N1.0 kmh N 2.8 mph4.5 kmh 29.48 in998.3 mb 0.00 in0.0 mm 0.00 in0.0 mm 0.05 in1.3 mm
11:21 PM 61.5°F16.4°C -166.6°F-110.3°C - 0.6 mph N1.0 kmh N 2.8 mph4.5 kmh 29.48 in998.3 mb 0.00 in0.0 mm 0.00 in0.0 mm 0.05 in1.3 mm
11:36 PM 61.2°F16.2°C -166.7°F-110.4°C - 1.4 mph N2.3 kmh N 3.4 mph5.5 kmh 29.49 in998.6 mb 0.00 in0.0 mm 0.00 in0.0 mm 0.05 in1.3 mm
11:51 PM 61.0°F16.1°C -166.7°F-110.4°C - 1.4 mph N2.3 kmh N 2.8 mph4.5 kmh 29.49 in998.6 mb 0.00 in0.0 mm 0.00 in0.0 mm 0.05 in1.3 mm